Forside
METAR-TAF:

METAR-TAF

Lufthavne :

Yellowknife, Northwest Territories, Canada

Breddekreds: 62-28N, længdekreds: 114-27W, højde: 205 m

Aktuelle vejr

Denne rapport blev lavet for 52 minutter siden, kl. 03:00 UTC
Vind 8 kt fra nord
Temperatur 18°C
Fugtighed 45%
Tryk 1027 hPa
Sigt: 24.1 km
Nogle få skyer i en højde af 6000 ft
Brudte skyer i en højde af 25000 ft

METAR: CYZF 230300Z 01008KT 15SM FEW060 BKN250 18/06 A3034 RMK SC1FU6 SLP282 DENSITY ALT 700FT

Tid: 21:52 (03:52 UTC)

Vejrudsigter

Denne rapport blev lavet for 4 timer og 13 minutter siden, kl. 23:39 UTC
Foreløbig gælder fra 23 på 00 UTC til 23 på 24 UTC
Vind 12 kt fra nord med vindstød på up til 22 kt
Sigt: 10 km
Nogle få skyer i en højde af 6000 ft
ændring
fra 23 på 03 UTC til 23 på 05 UTC
Vind 7 kt fra nordnordøst

TAF: CYZF 222339Z 2300/2324 01012G22KT P6SM FEW060 BECMG 2303/2305 02007KT RMK NXT FCST BY 230600Z

Vejrobservationer og prognoser fra mere end 4000 lufthavne (METAR og TAF).

De gule og røde prikker repræsenterer de meteorologiske stationer.

Flyt musen over at se navnet på stationen.

Så klik over at se vejr observationer og prognoser.

At skifte det kort: Klik på de grønne knapper med et sort kors for at zoome ind; på den grønne knap med en bindestreg for at zoome ud; eller på de grønne pile for tilstødende kort.


METAR-TAF: